Mercer, Tennessee
Current Conditions -  °F | °C
As of 2:53 AM on Thursday 18 Dec 2014 (Local Time) from KMKL Reporting Station
Light Rain Light Rain  
Wind Chill: 31°   Ceiling: 7000
Heat Index: 36°   Visibility: 6mi
Dew Point: 33°   Wind: 6mph
Humidity: 89%   Direction: 90°E
Pressure: 30.25"   Gusts: NA
Location:  35.48°N, 89.04°W
Report Text: KMKL 180853Z AUTO 09005KT 6SM -RA BR OVC070 02/01 A3025 RMK AO2 SLP244 P0007 60016 T00220006 56023
Loading
Personal Weather Stations






























Interactive Weather Map New forecast layout! Learn more

10-Day Weather Forecast

Advertisements
Track Severe Weather on mobile